createdAt,value
2022-11-12T00:02:12.960Z,9.76
2022-11-12T00:04:59.798Z,9.76
2022-11-12T00:07:46.338Z,9.75
2022-11-12T00:10:33.508Z,9.79
2022-11-12T00:13:20.012Z,9.76
2022-11-12T00:16:06.623Z,9.69
2022-11-12T00:18:53.430Z,9.70
2022-11-12T00:21:39.730Z,9.64
2022-11-12T00:24:26.337Z,9.62
2022-11-12T00:27:13.313Z,9.58
2022-11-12T00:29:59.997Z,9.44
2022-11-12T00:32:46.725Z,9.38
2022-11-12T00:35:33.961Z,9.26
2022-11-12T00:38:20.728Z,9.07
2022-11-12T00:41:07.371Z,8.98
2022-11-12T00:43:54.287Z,8.92
2022-11-12T00:46:40.815Z,8.86
2022-11-12T00:49:27.281Z,8.77
2022-11-12T00:52:13.922Z,8.76
2022-11-12T00:55:00.295Z,8.75
2022-11-12T00:57:46.787Z,8.78
2022-11-12T01:00:33.050Z,8.73
2022-11-12T01:03:19.727Z,8.73
2022-11-12T01:06:13.043Z,8.65
2022-11-12T01:08:59.736Z,8.61
2022-11-12T01:11:46.706Z,8.55
2022-11-12T01:14:33.841Z,8.47
2022-11-12T01:17:20.055Z,8.51
2022-11-12T01:20:07.475Z,8.48
2022-11-12T01:22:54.103Z,8.43
2022-11-12T01:25:41.040Z,8.36
2022-11-12T01:28:30.699Z,8.30
2022-11-12T01:31:26.960Z,8.26
2022-11-12T01:34:13.613Z,8.31
2022-11-12T01:37:00.179Z,8.34
2022-11-12T01:39:46.968Z,8.37
2022-11-12T01:42:33.778Z,8.37
2022-11-12T01:45:20.761Z,8.27
2022-11-12T01:48:13.784Z,8.14
2022-11-12T01:51:02.141Z,8.09
2022-11-12T01:53:53.182Z,8.06
2022-11-12T01:56:42.437Z,7.93
2022-11-12T01:59:38.178Z,7.77
2022-11-12T02:02:24.809Z,7.66
2022-11-12T02:05:12.364Z,7.56
2022-11-12T02:08:00.844Z,7.50
2022-11-12T02:10:47.742Z,7.48
2022-11-12T02:13:53.058Z,7.51
2022-11-12T02:16:42.087Z,7.47
2022-11-12T02:19:28.669Z,7.40
2022-11-12T02:22:15.393Z,7.39
2022-11-12T02:25:01.811Z,7.33
2022-11-12T02:27:51.767Z,7.28
2022-11-12T02:30:46.186Z,7.35
2022-11-12T02:33:32.580Z,7.45
2022-11-12T02:36:20.035Z,7.52
2022-11-12T02:39:06.437Z,7.58
2022-11-12T02:41:53.121Z,7.60
2022-11-12T02:44:39.838Z,7.63
2022-11-12T02:47:26.143Z,7.65
2022-11-12T02:50:13.129Z,7.59
2022-11-12T02:52:59.616Z,7.56
2022-11-12T02:55:46.065Z,7.58
2022-11-12T02:58:33.201Z,7.53
2022-11-12T03:01:19.439Z,7.43
2022-11-12T03:04:05.707Z,7.38
2022-11-12T03:06:52.671Z,7.35
2022-11-12T03:09:39.589Z,7.35
2022-11-12T03:12:26.163Z,7.28
2022-11-12T03:15:14.669Z,7.25
2022-11-12T03:18:01.291Z,7.22
2022-11-12T03:20:51.906Z,7.18
2022-11-12T03:23:38.298Z,7.06
2022-11-12T03:26:25.076Z,7.06
2022-11-12T03:29:11.862Z,6.95
2022-11-12T03:31:58.275Z,6.82
2022-11-12T03:34:44.753Z,6.74
2022-11-12T03:37:31.553Z,6.49
2022-11-12T03:40:18.708Z,6.32
2022-11-12T03:43:05.523Z,6.30
2022-11-12T03:45:52.088Z,6.40
2022-11-12T03:48:38.590Z,6.39
2022-11-12T03:51:24.723Z,6.36
2022-11-12T03:54:11.518Z,6.42
2022-11-12T03:56:58.047Z,6.38
2022-11-12T03:59:44.326Z,6.15
2022-11-12T04:02:32.498Z,6.21
2022-11-12T04:05:37.689Z,6.29
2022-11-12T04:08:37.234Z,6.23
2022-11-12T04:11:23.691Z,6.07
2022-11-12T04:14:10.002Z,6.02
2022-11-12T04:17:15.491Z,6.08
2022-11-12T04:20:20.753Z,6.05
2022-11-12T04:23:07.225Z,5.91
2022-11-12T04:26:13.211Z,5.81
2022-11-12T04:29:18.255Z,5.67
2022-11-12T04:32:04.681Z,5.59
2022-11-12T04:34:52.076Z,5.73
2022-11-12T04:37:44.877Z,5.81
2022-11-12T04:40:50.655Z,5.87
2022-11-12T04:43:55.526Z,5.99
2022-11-12T04:46:42.096Z,6.03
2022-11-12T04:49:28.910Z,6.06
2022-11-12T04:52:15.576Z,6.10
2022-11-12T04:55:01.935Z,6.13
2022-11-12T04:57:48.498Z,6.14
2022-11-12T05:00:35.298Z,6.09
2022-11-12T05:03:21.965Z,6.12
2022-11-12T05:06:28.360Z,6.11
2022-11-12T05:09:14.843Z,6.02
2022-11-12T05:12:01.555Z,5.93
2022-11-12T05:14:47.789Z,6.00
2022-11-12T05:17:34.799Z,6.00
2022-11-12T05:20:21.352Z,6.00
2022-11-12T05:23:08.109Z,5.97
2022-11-12T05:25:54.847Z,5.98
2022-11-12T05:28:41.454Z,6.00
2022-11-12T05:31:27.717Z,6.04
2022-11-12T05:34:17.447Z,6.03
2022-11-12T05:37:07.966Z,6.09
2022-11-12T05:39:54.708Z,6.13
2022-11-12T05:42:40.803Z,6.24
2022-11-12T05:45:27.367Z,6.22
2022-11-12T05:48:16.937Z,6.33
2022-11-12T05:51:12.985Z,6.42
2022-11-12T05:54:01.292Z,6.27
2022-11-12T05:56:52.221Z,6.36
2022-11-12T05:59:39.922Z,6.56
2022-11-12T06:02:26.401Z,6.69
2022-11-12T06:05:13.395Z,6.69
2022-11-12T06:08:00.847Z,6.58
2022-11-12T06:10:52.274Z,6.49
2022-11-12T06:13:38.707Z,6.49
2022-11-12T06:16:26.604Z,6.23
2022-11-12T06:19:13.450Z,6.47
2022-11-12T06:22:00.111Z,6.80
2022-11-12T06:24:46.846Z,6.93
2022-11-12T06:27:33.577Z,6.80
2022-11-12T06:30:25.525Z,7.06
2022-11-12T06:33:12.979Z,7.07
2022-11-12T06:36:03.356Z,7.31
2022-11-12T06:38:50.103Z,7.31
2022-11-12T06:41:36.497Z,7.55
2022-11-12T06:44:23.230Z,7.66
2022-11-12T06:47:11.955Z,7.80
2022-11-12T06:49:58.384Z,8.00
2022-11-12T06:52:45.296Z,8.11
2022-11-12T06:55:32.256Z,8.28
2022-11-12T06:58:18.930Z,8.47
2022-11-12T07:01:11.548Z,8.63
2022-11-12T07:03:59.251Z,8.78
2022-11-12T07:06:45.880Z,8.87
2022-11-12T07:09:33.052Z,8.89
2022-11-12T07:12:20.037Z,9.05
2022-11-12T07:15:06.904Z,9.20
2022-11-12T07:17:57.533Z,9.29
2022-11-12T07:20:44.884Z,9.45
2022-11-12T07:23:33.991Z,9.49
2022-11-12T07:26:23.482Z,9.61
2022-11-12T07:29:24.844Z,9.71
2022-11-12T07:32:20.742Z,9.74
2022-11-12T07:35:09.163Z,9.94
2022-11-12T07:37:59.389Z,10.11
2022-11-12T07:40:46.268Z,10.33
2022-11-12T07:43:34.920Z,10.52
2022-11-12T07:46:23.990Z,10.39
2022-11-12T07:49:12.793Z,10.37
2022-11-12T07:52:00.046Z,10.37
2022-11-12T07:54:47.351Z,10.30
2022-11-12T07:57:35.060Z,10.30
2022-11-12T08:00:23.934Z,10.34
2022-11-12T08:03:12.545Z,10.51
2022-11-12T08:06:01.935Z,10.57
2022-11-12T08:08:56.787Z,10.76
2022-11-12T08:11:43.726Z,10.88
2022-11-12T08:14:30.241Z,11.07
2022-11-12T08:17:16.895Z,11.05
2022-11-12T08:20:04.056Z,11.20
2022-11-12T08:22:51.651Z,11.08
2022-11-12T08:25:38.527Z,10.95
2022-11-12T08:28:25.768Z,10.89
2022-11-12T08:31:15.884Z,10.97
2022-11-12T08:34:12.433Z,11.13
2022-11-12T08:37:00.747Z,11.27
2022-11-12T08:39:48.081Z,11.30
2022-11-12T08:42:35.024Z,11.48
2022-11-12T08:45:21.795Z,11.48
2022-11-12T08:48:11.578Z,11.43
2022-11-12T08:50:58.685Z,11.62
2022-11-12T08:53:45.776Z,11.72
2022-11-12T08:56:32.228Z,11.78
2022-11-12T08:59:19.219Z,12.01
2022-11-12T09:02:06.977Z,11.98
2022-11-12T09:04:53.433Z,11.90
2022-11-12T09:07:49.814Z,11.88
2022-11-12T09:10:38.421Z,11.83
2022-11-12T09:13:25.035Z,11.93
2022-11-12T09:16:11.711Z,12.04
2022-11-12T09:18:57.974Z,11.97
2022-11-12T09:21:44.686Z,12.25
2022-11-12T09:24:31.474Z,12.48
2022-11-12T09:27:18.106Z,12.51
2022-11-12T09:30:06.818Z,12.43
2022-11-12T09:32:58.064Z,12.43
2022-11-12T09:35:46.549Z,12.48
2022-11-12T09:38:33.306Z,12.69
2022-11-12T09:41:27.469Z,12.62
2022-11-12T09:44:18.332Z,12.81
2022-11-12T09:47:17.987Z,12.73
2022-11-12T09:50:28.973Z,12.69
2022-11-12T09:53:34.609Z,13.06
2022-11-12T09:56:22.706Z,13.08
2022-11-12T09:59:13.972Z,13.23
2022-11-12T10:02:26.084Z,13.14
2022-11-12T10:05:29.251Z,13.04
2022-11-12T10:08:39.352Z,12.95
2022-11-12T10:12:04.434Z,13.05
2022-11-12T10:15:34.253Z,13.03
2022-11-12T10:18:39.923Z,13.14
2022-11-12T10:22:04.868Z,13.17
2022-11-12T10:24:52.534Z,13.29
2022-11-12T10:27:42.675Z,13.37
2022-11-12T10:30:30.051Z,13.48
2022-11-12T10:33:21.035Z,13.73
2022-11-12T10:36:34.799Z,13.77
2022-11-12T10:39:39.208Z,13.83
2022-11-12T10:42:31.140Z,13.98
2022-11-12T10:45:23.087Z,14.00
2022-11-12T10:48:41.176Z,13.88
2022-11-12T10:51:58.149Z,13.89
2022-11-12T10:54:49.670Z,13.95
2022-11-12T10:57:39.525Z,14.11
2022-11-12T11:00:27.070Z,14.29
2022-11-12T11:03:24.156Z,14.31
2022-11-12T11:06:17.674Z,14.44
2022-11-12T11:09:13.450Z,14.54
2022-11-12T11:12:01.913Z,14.65
2022-11-12T11:15:07.958Z,14.76
2022-11-12T11:17:55.483Z,14.58
2022-11-12T11:20:47.618Z,14.41
2022-11-12T11:24:02.348Z,14.41
2022-11-12T11:27:14.557Z,14.57
2022-11-12T11:30:12.458Z,14.81
2022-11-12T11:33:43.811Z,14.68
2022-11-12T11:36:43.734Z,14.55
2022-11-12T11:39:56.790Z,14.41
2022-11-12T11:42:52.447Z,14.63
2022-11-12T11:45:59.503Z,14.68
2022-11-12T11:48:53.851Z,14.83
2022-11-12T11:52:22.401Z,14.87
2022-11-12T11:55:38.684Z,14.80
2022-11-12T11:58:43.870Z,14.96
2022-11-12T12:02:05.248Z,14.90
2022-11-12T12:04:58.738Z,14.90
2022-11-12T12:08:02.425Z,15.02
2022-11-12T12:11:09.398Z,15.14
2022-11-12T12:14:06.782Z,15.02
2022-11-12T12:17:18.166Z,14.86
2022-11-12T12:20:30.370Z,14.91
2022-11-12T12:23:33.498Z,15.13
2022-11-12T12:26:33.925Z,15.23
2022-11-12T12:29:39.663Z,15.04
2022-11-12T12:32:41.190Z,14.84
2022-11-12T12:35:44.567Z,15.14
2022-11-12T12:38:45.787Z,15.07
2022-11-12T12:41:37.670Z,15.01
2022-11-12T12:44:50.285Z,15.02
2022-11-12T12:47:43.412Z,15.30
2022-11-12T12:50:30.958Z,15.23
2022-11-12T12:53:31.643Z,15.41
2022-11-12T12:56:46.547Z,15.22
2022-11-12T12:59:33.901Z,15.28
2022-11-12T13:02:23.753Z,15.37
2022-11-12T13:05:25.054Z,15.21
2022-11-12T13:08:23.962Z,15.42
2022-11-12T13:11:11.139Z,15.47
2022-11-12T13:14:37.118Z,15.49
2022-11-12T13:17:45.488Z,15.55
2022-11-12T13:20:35.887Z,15.49
2022-11-12T13:24:09.698Z,15.54
2022-11-12T13:27:02.819Z,15.56
2022-11-12T13:29:51.382Z,15.49
2022-11-12T13:32:54.548Z,15.32
2022-11-12T13:35:42.485Z,15.36
2022-11-12T13:38:38.374Z,15.66
2022-11-12T13:41:46.439Z,15.56
2022-11-12T13:44:35.507Z,15.71
2022-11-12T13:47:25.513Z,15.93
2022-11-12T13:50:20.663Z,15.91
2022-11-12T13:53:13.849Z,15.76
2022-11-12T13:56:02.734Z,15.51
2022-11-12T13:58:50.963Z,15.53
2022-11-12T14:01:39.118Z,15.60
2022-11-12T14:04:27.220Z,15.62
2022-11-12T14:07:24.761Z,15.60
2022-11-12T14:10:46.044Z,15.47
2022-11-12T14:13:49.896Z,15.56
2022-11-12T14:17:21.945Z,15.48
2022-11-12T14:20:37.124Z,15.52
2022-11-12T14:23:27.164Z,15.73
2022-11-12T14:26:35.463Z,15.76
2022-11-12T14:29:23.284Z,15.77
2022-11-12T14:32:10.218Z,15.78
2022-11-12T14:34:57.354Z,15.77
2022-11-12T14:37:59.609Z,15.88
2022-11-12T14:40:56.378Z,15.85
2022-11-12T14:43:48.865Z,15.80
2022-11-12T14:46:48.912Z,15.78
2022-11-12T14:49:44.955Z,15.90
2022-11-12T14:52:40.691Z,16.00
2022-11-12T14:55:33.988Z,15.83
2022-11-12T14:58:23.969Z,15.75
2022-11-12T15:01:47.779Z,15.70
2022-11-12T15:04:26.342Z,15.65
2022-11-12T15:07:30.027Z,15.71
2022-11-12T15:10:32.305Z,15.77
2022-11-12T15:13:22.881Z,15.88
2022-11-12T15:16:12.220Z,15.83
2022-11-12T15:19:15.582Z,15.84
2022-11-12T15:22:04.468Z,15.68
2022-11-12T15:24:52.246Z,15.73
2022-11-12T15:27:42.777Z,15.63
2022-11-12T15:30:32.133Z,15.61
2022-11-12T15:33:22.689Z,15.44
2022-11-12T15:36:18.500Z,15.22
2022-11-12T15:39:13.403Z,15.18
2022-11-12T15:42:04.024Z,15.36
2022-11-12T15:44:56.600Z,15.29
2022-11-12T15:47:44.095Z,15.03
2022-11-12T15:50:34.753Z,15.20
2022-11-12T15:53:34.643Z,15.19
2022-11-12T15:56:23.096Z,15.31
2022-11-12T15:59:17.291Z,15.47
2022-11-12T16:02:11.248Z,15.54
2022-11-12T16:04:59.168Z,15.57
2022-11-12T16:07:46.518Z,15.33
2022-11-12T16:10:37.574Z,15.16
2022-11-12T16:13:27.902Z,15.30
2022-11-12T16:16:17.199Z,15.39
2022-11-12T16:19:05.071Z,15.57
2022-11-12T16:21:52.210Z,15.64
2022-11-12T16:24:40.907Z,15.54
2022-11-12T16:27:27.776Z,15.49
2022-11-12T16:30:20.855Z,15.62
2022-11-12T16:33:12.048Z,15.53
2022-11-12T16:35:58.962Z,15.41
2022-11-12T16:38:46.882Z,15.43
2022-11-12T16:41:33.423Z,15.53
2022-11-12T16:44:20.361Z,15.56
2022-11-12T16:47:11.069Z,15.62
2022-11-12T16:49:58.045Z,15.68
2022-11-12T16:52:45.125Z,15.59
2022-11-12T16:55:31.814Z,15.28
2022-11-12T16:58:18.304Z,15.31
2022-11-12T17:01:05.842Z,15.49
2022-11-12T17:03:54.824Z,15.59
2022-11-12T17:06:42.683Z,15.56
2022-11-12T17:09:30.043Z,15.56
2022-11-12T17:12:16.929Z,15.55
2022-11-12T17:15:05.518Z,15.62
2022-11-12T17:17:55.831Z,15.70
2022-11-12T17:20:48.358Z,15.60
2022-11-12T17:23:39.400Z,15.49
2022-11-12T17:26:26.888Z,15.58
2022-11-12T17:29:13.699Z,15.47
2022-11-12T17:32:00.820Z,15.52
2022-11-12T17:34:48.226Z,15.59
2022-11-12T17:37:35.273Z,15.51
2022-11-12T17:40:22.116Z,15.28
2022-11-12T17:43:09.327Z,15.18
2022-11-12T17:45:57.457Z,15.06
2022-11-12T17:48:44.817Z,15.14
2022-11-12T17:51:32.222Z,14.85
2022-11-12T17:54:21.475Z,14.84
2022-11-12T17:57:08.912Z,15.01
2022-11-12T18:00:00.036Z,15.21
2022-11-12T18:02:48.195Z,15.30
2022-11-12T18:05:42.933Z,15.26
2022-11-12T18:08:30.932Z,15.17
2022-11-12T18:11:21.247Z,15.22
2022-11-12T18:14:09.692Z,15.25
2022-11-12T18:16:59.725Z,15.32
2022-11-12T18:19:47.986Z,15.36
2022-11-12T18:22:40.737Z,15.40
2022-11-12T18:25:36.975Z,15.47
2022-11-12T18:28:24.169Z,15.53
2022-11-12T18:31:13.054Z,15.34
2022-11-12T18:34:00.177Z,15.23
2022-11-12T18:36:47.105Z,15.27
2022-11-12T18:39:34.730Z,14.66
2022-11-12T18:42:24.718Z,14.89
2022-11-12T18:45:12.662Z,15.09
2022-11-12T18:48:01.035Z,15.16
2022-11-12T18:50:47.640Z,15.25
2022-11-12T18:53:36.210Z,15.27
2022-11-12T18:56:23.841Z,15.31
2022-11-12T18:59:14.472Z,15.34
2022-11-12T19:02:03.579Z,15.12
2022-11-12T19:04:50.821Z,15.12
2022-11-12T19:07:38.758Z,15.11
2022-11-12T19:10:29.318Z,15.01
2022-11-12T19:13:18.572Z,15.13
2022-11-12T19:16:12.122Z,15.04
2022-11-12T19:19:00.508Z,15.01
2022-11-12T19:21:49.479Z,15.07
2022-11-12T19:24:38.567Z,15.06
2022-11-12T19:27:28.117Z,15.18
2022-11-12T19:30:18.014Z,14.99
2022-11-12T19:33:07.288Z,14.80
2022-11-12T19:35:54.886Z,14.89
2022-11-12T19:38:42.933Z,14.98
2022-11-12T19:41:30.413Z,15.04
2022-11-12T19:44:17.272Z,15.18
2022-11-12T19:47:04.897Z,15.28
2022-11-12T19:49:51.558Z,15.14
2022-11-12T19:52:38.478Z,15.19
2022-11-12T19:55:29.927Z,15.22
2022-11-12T19:58:17.319Z,15.14
2022-11-12T20:01:11.676Z,15.16
2022-11-12T20:03:59.812Z,15.10
2022-11-12T20:06:50.078Z,15.14
2022-11-12T20:09:38.183Z,15.27
2022-11-12T20:12:25.709Z,15.30
2022-11-12T20:15:13.502Z,15.14
2022-11-12T20:18:00.881Z,15.02
2022-11-12T20:20:53.851Z,15.09
2022-11-12T20:23:43.419Z,15.21
2022-11-12T20:26:30.798Z,15.33
2022-11-12T20:29:17.793Z,15.32
2022-11-12T20:32:05.352Z,15.26
2022-11-12T20:34:53.472Z,15.08
2022-11-12T20:37:43.645Z,15.14
2022-11-12T20:40:32.144Z,15.15
2022-11-12T20:43:19.472Z,15.07
2022-11-12T20:46:06.529Z,15.02
2022-11-12T20:48:57.184Z,14.98
2022-11-12T20:51:44.875Z,15.13
2022-11-12T20:54:31.855Z,15.25
2022-11-12T20:57:22.355Z,15.23
2022-11-12T21:00:13.706Z,15.09
2022-11-12T21:03:03.116Z,15.01
2022-11-12T21:05:58.293Z,14.73
2022-11-12T21:08:46.657Z,14.83
2022-11-12T21:11:33.938Z,14.83
2022-11-12T21:14:21.677Z,14.65
2022-11-12T21:17:08.509Z,14.76
2022-11-12T21:19:55.861Z,14.92
2022-11-12T21:22:42.722Z,14.88
2022-11-12T21:25:30.549Z,14.96
2022-11-12T21:28:17.424Z,14.85
2022-11-12T21:31:06.205Z,14.82
2022-11-12T21:34:00.450Z,14.97
2022-11-12T21:36:47.880Z,14.99
2022-11-12T21:39:37.019Z,14.87
2022-11-12T21:42:23.998Z,14.76
2022-11-12T21:45:12.080Z,14.94
2022-11-12T21:47:59.034Z,14.97
2022-11-12T21:50:46.132Z,14.99
2022-11-12T21:53:34.011Z,15.04
2022-11-12T21:56:20.726Z,14.98
2022-11-12T21:59:07.599Z,14.92
2022-11-12T22:01:55.081Z,14.88
2022-11-12T22:04:42.203Z,14.96
2022-11-12T22:07:29.735Z,14.85
2022-11-12T22:10:17.622Z,14.82
2022-11-12T22:13:26.019Z,14.82
2022-11-12T22:16:17.378Z,14.85
2022-11-12T22:19:04.418Z,14.99
2022-11-12T22:21:50.800Z,15.02
2022-11-12T22:24:39.823Z,14.84
2022-11-12T22:30:34.238Z,14.73
2022-11-12T22:33:20.185Z,14.55
2022-11-12T22:36:08.478Z,14.62
2022-11-12T22:38:55.326Z,14.42
2022-11-12T22:41:40.792Z,14.39
2022-11-12T22:44:25.894Z,14.23
2022-11-12T22:47:11.239Z,14.29
2022-11-12T22:49:57.004Z,14.53
2022-11-12T22:52:48.811Z,14.63
2022-11-12T22:55:35.286Z,14.82
2022-11-12T22:58:21.607Z,14.84
2022-11-12T23:01:10.763Z,14.77
2022-11-12T23:03:58.538Z,14.88
2022-11-12T23:06:43.810Z,14.80
2022-11-12T23:09:29.084Z,14.78
2022-11-12T23:12:15.563Z,14.77
2022-11-12T23:15:00.505Z,14.90
2022-11-12T23:17:45.795Z,14.72
2022-11-12T23:20:31.204Z,14.63
2022-11-12T23:23:16.430Z,14.76
2022-11-12T23:26:03.752Z,14.95
2022-11-12T23:28:49.016Z,14.87
2022-11-12T23:31:35.023Z,14.64
2022-11-12T23:34:21.228Z,14.76
2022-11-12T23:37:08.296Z,14.95
2022-11-12T23:39:54.531Z,14.91
2022-11-12T23:42:41.005Z,14.61
2022-11-12T23:45:26.300Z,14.55
2022-11-12T23:48:11.412Z,14.55
2022-11-12T23:51:05.901Z,14.48
2022-11-12T23:53:51.656Z,14.48
2022-11-12T23:56:36.773Z,14.64
2022-11-12T23:59:21.754Z,14.57
